sensor_id;sensor_type;location;lat;lon;timestamp;temperature;humidity
23713;DHT22;12035;49.978;8.298;2022-08-03T00:03:06;29.50;33.30
23713;DHT22;12035;49.978;8.298;2022-08-03T00:08:04;29.50;33.30
23713;DHT22;12035;49.978;8.298;2022-08-03T00:13:01;29.40;33.10
23713;DHT22;12035;49.978;8.298;2022-08-03T00:17:58;29.40;33.30
23713;DHT22;12035;49.978;8.298;2022-08-03T00:22:56;29.30;33.20
23713;DHT22;12035;49.978;8.298;2022-08-03T00:27:54;29.30;33.40
23713;DHT22;12035;49.978;8.298;2022-08-03T00:32:51;29.20;33.50
23713;DHT22;12035;49.978;8.298;2022-08-03T00:37:48;29.20;33.80
23713;DHT22;12035;49.978;8.298;2022-08-03T00:42:48;29.10;33.70
23713;DHT22;12035;49.978;8.298;2022-08-03T00:47:48;29.10;34.10
23713;DHT22;12035;49.978;8.298;2022-08-03T00:52:46;29.00;33.90
23713;DHT22;12035;49.978;8.298;2022-08-03T00:57:43;29.00;34.00
23713;DHT22;12035;49.978;8.298;2022-08-03T01:02:42;29.00;34.10
23713;DHT22;12035;49.978;8.298;2022-08-03T01:07:45;28.90;34.30
23713;DHT22;12035;49.978;8.298;2022-08-03T01:12:53;28.80;34.40
23713;DHT22;12035;49.978;8.298;2022-08-03T01:17:56;28.80;34.70
23713;DHT22;12035;49.978;8.298;2022-08-03T01:29:03;28.70;35.10
23713;DHT22;12035;49.978;8.298;2022-08-03T01:34:09;28.60;35.90
23713;DHT22;12035;49.978;8.298;2022-08-03T01:39:08;28.50;35.50
23713;DHT22;12035;49.978;8.298;2022-08-03T01:44:08;28.40;35.30
23713;DHT22;12035;49.978;8.298;2022-08-03T01:49:11;28.40;35.30
23713;DHT22;12035;49.978;8.298;2022-08-03T01:54:09;28.30;35.30
23713;DHT22;12035;49.978;8.298;2022-08-03T01:59:09;28.20;35.10
23713;DHT22;12035;49.978;8.298;2022-08-03T02:04:07;28.20;35.30
23713;DHT22;12035;49.978;8.298;2022-08-03T02:09:07;28.10;35.40
23713;DHT22;12035;49.978;8.298;2022-08-03T02:14:05;28.00;35.40
23713;DHT22;12035;49.978;8.298;2022-08-03T02:19:05;28.00;35.40
23713;DHT22;12035;49.978;8.298;2022-08-03T02:24:05;27.90;35.50
23713;DHT22;12035;49.978;8.298;2022-08-03T02:29:07;27.90;35.70
23713;DHT22;12035;49.978;8.298;2022-08-03T02:34:11;27.80;35.70
23713;DHT22;12035;49.978;8.298;2022-08-03T02:39:15;27.70;35.90
23713;DHT22;12035;49.978;8.298;2022-08-03T02:44:13;27.70;35.90
23713;DHT22;12035;49.978;8.298;2022-08-03T02:49:15;27.60;36.00
23713;DHT22;12035;49.978;8.298;2022-08-03T02:54:17;27.60;36.30
23713;DHT22;12035;49.978;8.298;2022-08-03T02:59:17;27.60;36.30
23713;DHT22;12035;49.978;8.298;2022-08-03T03:04:14;27.50;36.30
23713;DHT22;12035;49.978;8.298;2022-08-03T03:09:12;27.50;36.30
23713;DHT22;12035;49.978;8.298;2022-08-03T03:14:11;27.50;36.30
23713;DHT22;12035;49.978;8.298;2022-08-03T03:19:11;27.40;36.60
23713;DHT22;12035;49.978;8.298;2022-08-03T03:24:09;27.40;36.80
23713;DHT22;12035;49.978;8.298;2022-08-03T03:29:06;27.30;36.50
23713;DHT22;12035;49.978;8.298;2022-08-03T03:34:05;27.30;36.70
23713;DHT22;12035;49.978;8.298;2022-08-03T03:39:03;27.30;37.00
23713;DHT22;12035;49.978;8.298;2022-08-03T03:44:00;27.30;36.90
23713;DHT22;12035;49.978;8.298;2022-08-03T03:48:57;27.20;36.80
23713;DHT22;12035;49.978;8.298;2022-08-03T03:53:57;27.20;37.00
23713;DHT22;12035;49.978;8.298;2022-08-03T03:58:55;27.10;37.10
23713;DHT22;12035;49.978;8.298;2022-08-03T04:03:52;27.10;37.00
23713;DHT22;12035;49.978;8.298;2022-08-03T04:08:49;27.10;37.20
23713;DHT22;12035;49.978;8.298;2022-08-03T04:14:08;27.00;37.40
23713;DHT22;12035;49.978;8.298;2022-08-03T04:19:09;27.10;37.90
23713;DHT22;12035;49.978;8.298;2022-08-03T04:24:09;27.20;38.10
23713;DHT22;12035;49.978;8.298;2022-08-03T04:29:09;27.40;38.30
23713;DHT22;12035;49.978;8.298;2022-08-03T04:34:07;27.60;38.40
23713;DHT22;12035;49.978;8.298;2022-08-03T04:39:09;28.00;38.30
23713;DHT22;12035;49.978;8.298;2022-08-03T04:44:12;28.50;38.40
23713;DHT22;12035;49.978;8.298;2022-08-03T04:49:10;29.00;38.20
23713;DHT22;12035;49.978;8.298;2022-08-03T04:54:11;29.60;37.80
23713;DHT22;12035;49.978;8.298;2022-08-03T04:59:09;30.20;37.30
23713;DHT22;12035;49.978;8.298;2022-08-03T05:04:08;30.90;36.80
23713;DHT22;12035;49.978;8.298;2022-08-03T05:09:05;31.60;36.10
23713;DHT22;12035;49.978;8.298;2022-08-03T05:14:02;32.30;35.40
23713;DHT22;12035;49.978;8.298;2022-08-03T05:19:01;33.00;34.90
23713;DHT22;12035;49.978;8.298;2022-08-03T05:23:58;33.70;33.90
23713;DHT22;12035;49.978;8.298;2022-08-03T05:28:55;34.40;33.60
23713;DHT22;12035;49.978;8.298;2022-08-03T05:33:53;35.10;32.80
23713;DHT22;12035;49.978;8.298;2022-08-03T05:38:51;35.80;32.00
23713;DHT22;12035;49.978;8.298;2022-08-03T05:43:48;36.50;31.20
23713;DHT22;12035;49.978;8.298;2022-08-03T05:48:46;37.20;30.10
23713;DHT22;12035;49.978;8.298;2022-08-03T05:53:46;37.90;29.70
23713;DHT22;12035;49.978;8.298;2022-08-03T05:58:45;38.60;29.10
23713;DHT22;12035;49.978;8.298;2022-08-03T06:03:43;39.20;28.00
23713;DHT22;12035;49.978;8.298;2022-08-03T06:08:41;39.70;28.20
23713;DHT22;12035;49.978;8.298;2022-08-03T06:13:39;40.20;27.30
23713;DHT22;12035;49.978;8.298;2022-08-03T06:18:38;40.70;26.60
23713;DHT22;12035;49.978;8.298;2022-08-03T06:23:35;41.30;25.90
23713;DHT22;12035;49.978;8.298;2022-08-03T06:28:33;41.70;26.10
23713;DHT22;12035;49.978;8.298;2022-08-03T06:33:30;41.90;25.00
23713;DHT22;12035;49.978;8.298;2022-08-03T06:38:28;42.00;24.70
23713;DHT22;12035;49.978;8.298;2022-08-03T06:43:25;41.90;24.60
23713;DHT22;12035;49.978;8.298;2022-08-03T06:48:22;42.00;24.70
23713;DHT22;12035;49.978;8.298;2022-08-03T06:53:19;42.30;24.40
23713;DHT22;12035;49.978;8.298;2022-08-03T06:58:18;42.60;24.10
23713;DHT22;12035;49.978;8.298;2022-08-03T07:03:15;42.90;24.00
23713;DHT22;12035;49.978;8.298;2022-08-03T07:08:13;43.20;24.00
23713;DHT22;12035;49.978;8.298;2022-08-03T07:13:10;43.60;23.50
23713;DHT22;12035;49.978;8.298;2022-08-03T07:18:09;43.70;23.10
23713;DHT22;12035;49.978;8.298;2022-08-03T07:23:06;43.80;23.00
23713;DHT22;12035;49.978;8.298;2022-08-03T07:28:04;43.80;22.90
23713;DHT22;12035;49.978;8.298;2022-08-03T07:33:02;43.90;22.60
23713;DHT22;12035;49.978;8.298;2022-08-03T07:38:01;43.90;22.60
23713;DHT22;12035;49.978;8.298;2022-08-03T07:42:58;44.10;22.60
23713;DHT22;12035;49.978;8.298;2022-08-03T07:47:56;44.20;22.80
23713;DHT22;12035;49.978;8.298;2022-08-03T07:52:53;44.30;22.00
23713;DHT22;12035;49.978;8.298;2022-08-03T07:58:00;44.30;22.20
23713;DHT22;12035;49.978;8.298;2022-08-03T08:02:59;44.40;21.60
23713;DHT22;12035;49.978;8.298;2022-08-03T08:07:56;44.40;21.60
23713;DHT22;12035;49.978;8.298;2022-08-03T08:12:53;44.40;21.40
23713;DHT22;12035;49.978;8.298;2022-08-03T08:17:54;44.20;21.10
23713;DHT22;12035;49.978;8.298;2022-08-03T08:22:51;44.00;21.20
23713;DHT22;12035;49.978;8.298;2022-08-03T08:27:49;43.90;21.50
23713;DHT22;12035;49.978;8.298;2022-08-03T08:32:46;43.90;21.40
23713;DHT22;12035;49.978;8.298;2022-08-03T08:37:45;43.90;21.40
23713;DHT22;12035;49.978;8.298;2022-08-03T08:42:43;43.80;21.30
23713;DHT22;12035;49.978;8.298;2022-08-03T08:47:44;43.80;21.30
23713;DHT22;12035;49.978;8.298;2022-08-03T08:52:42;43.80;21.10
23713;DHT22;12035;49.978;8.298;2022-08-03T08:57:47;43.70;21.20
23713;DHT22;12035;49.978;8.298;2022-08-03T09:02:45;43.60;21.30
23713;DHT22;12035;49.978;8.298;2022-08-03T09:07:43;43.50;21.30
23713;DHT22;12035;49.978;8.298;2022-08-03T09:12:44;43.20;20.90
23713;DHT22;12035;49.978;8.298;2022-08-03T09:17:42;42.70;21.10
23713;DHT22;12035;49.978;8.298;2022-08-03T09:22:54;42.30;21.40
23713;DHT22;12035;49.978;8.298;2022-08-03T09:33:11;41.50;21.40
23713;DHT22;12035;49.978;8.298;2022-08-03T09:38:12;41.20;21.50
23713;DHT22;12035;49.978;8.298;2022-08-03T09:43:11;40.80;21.30
23713;DHT22;12035;49.978;8.298;2022-08-03T09:48:22;40.40;21.40
23713;DHT22;12035;49.978;8.298;2022-08-03T09:53:21;40.10;21.80
23713;DHT22;12035;49.978;8.298;2022-08-03T09:58:21;39.80;21.50
23713;DHT22;12035;49.978;8.298;2022-08-03T10:03:19;39.60;21.60
23713;DHT22;12035;49.978;8.298;2022-08-03T10:08:17;39.30;21.70
23713;DHT22;12035;49.978;8.298;2022-08-03T10:13:16;39.20;21.70
23713;DHT22;12035;49.978;8.298;2022-08-03T10:18:20;39.10;21.70
23713;DHT22;12035;49.978;8.298;2022-08-03T10:23:17;39.10;21.80
23713;DHT22;12035;49.978;8.298;2022-08-03T10:28:17;39.30;21.70
23713;DHT22;12035;49.978;8.298;2022-08-03T10:33:18;39.30;21.60
23713;DHT22;12035;49.978;8.298;2022-08-03T10:38:19;39.30;21.50
23713;DHT22;12035;49.978;8.298;2022-08-03T10:43:20;39.30;21.50
23713;DHT22;12035;49.978;8.298;2022-08-03T10:48:20;39.20;21.60
23713;DHT22;12035;49.978;8.298;2022-08-03T10:53:34;39.30;21.80
23713;DHT22;12035;49.978;8.298;2022-08-03T10:58:48;39.40;22.00
23713;DHT22;12035;49.978;8.298;2022-08-03T11:04:17;39.40;21.70
23713;DHT22;12035;49.978;8.298;2022-08-03T11:09:17;39.30;21.80
23713;DHT22;12035;49.978;8.298;2022-08-03T11:14:17;39.20;21.70
23713;DHT22;12035;49.978;8.298;2022-08-03T11:19:17;39.20;21.80
23713;DHT22;12035;49.978;8.298;2022-08-03T11:25:00;39.10;21.80
23713;DHT22;12035;49.978;8.298;2022-08-03T11:30:00;39.10;21.90
23713;DHT22;12035;49.978;8.298;2022-08-03T11:35:11;39.10;21.80
23713;DHT22;12035;49.978;8.298;2022-08-03T11:40:33;38.80;21.90
23713;DHT22;12035;49.978;8.298;2022-08-03T11:45:31;38.60;22.00
23713;DHT22;12035;49.978;8.298;2022-08-03T11:50:36;38.40;22.20
23713;DHT22;12035;49.978;8.298;2022-08-03T11:55:34;38.10;22.40
23713;DHT22;12035;49.978;8.298;2022-08-03T12:00:34;38.00;22.60
23713;DHT22;12035;49.978;8.298;2022-08-03T12:05:40;37.80;22.60
23713;DHT22;12035;49.978;8.298;2022-08-03T12:10:44;37.70;22.80
23713;DHT22;12035;49.978;8.298;2022-08-03T12:15:42;37.70;22.80
23713;DHT22;12035;49.978;8.298;2022-08-03T12:20:41;37.70;22.90
23713;DHT22;12035;49.978;8.298;2022-08-03T12:25:40;37.70;23.00
23713;DHT22;12035;49.978;8.298;2022-08-03T12:30:39;37.70;23.00
23713;DHT22;12035;49.978;8.298;2022-08-03T12:35:36;37.70;23.00
23713;DHT22;12035;49.978;8.298;2022-08-03T12:40:34;37.70;23.00
23713;DHT22;12035;49.978;8.298;2022-08-03T12:45:31;37.50;23.10
23713;DHT22;12035;49.978;8.298;2022-08-03T12:50:30;37.40;23.20
23713;DHT22;12035;49.978;8.298;2022-08-03T12:55:28;37.30;23.30
23713;DHT22;12035;49.978;8.298;2022-08-03T13:00:32;37.20;23.20
23713;DHT22;12035;49.978;8.298;2022-08-03T13:05:30;37.10;23.30
23713;DHT22;12035;49.978;8.298;2022-08-03T13:10:29;37.00;23.40
23713;DHT22;12035;49.978;8.298;2022-08-03T13:15:27;36.90;23.50
23713;DHT22;12035;49.978;8.298;2022-08-03T13:20:26;36.90;23.40
23713;DHT22;12035;49.978;8.298;2022-08-03T13:25:23;36.80;23.50
23713;DHT22;12035;49.978;8.298;2022-08-03T13:30:20;36.70;23.70
23713;DHT22;12035;49.978;8.298;2022-08-03T13:35:17;36.60;23.80
23713;DHT22;12035;49.978;8.298;2022-08-03T13:40:15;36.60;23.90
23713;DHT22;12035;49.978;8.298;2022-08-03T13:45:12;36.70;24.00
23713;DHT22;12035;49.978;8.298;2022-08-03T13:50:09;36.80;23.70
23713;DHT22;12035;49.978;8.298;2022-08-03T13:55:08;36.90;23.70
23713;DHT22;12035;49.978;8.298;2022-08-03T14:00:08;36.90;23.60
23713;DHT22;12035;49.978;8.298;2022-08-03T14:05:07;36.90;23.70
23713;DHT22;12035;49.978;8.298;2022-08-03T14:10:04;36.90;23.70
23713;DHT22;12035;49.978;8.298;2022-08-03T14:15:03;37.00;23.70
23713;DHT22;12035;49.978;8.298;2022-08-03T14:20:06;37.00;23.70
23713;DHT22;12035;49.978;8.298;2022-08-03T14:25:05;36.90;23.80
23713;DHT22;12035;49.978;8.298;2022-08-03T14:30:04;36.90;23.60
23713;DHT22;12035;49.978;8.298;2022-08-03T14:35:02;37.00;23.70
23713;DHT22;12035;49.978;8.298;2022-08-03T14:40:00;37.00;23.50
23713;DHT22;12035;49.978;8.298;2022-08-03T14:44:57;37.20;23.60
23713;DHT22;12035;49.978;8.298;2022-08-03T14:49:54;37.20;23.40
23713;DHT22;12035;49.978;8.298;2022-08-03T14:54:52;37.40;23.40
23713;DHT22;12035;49.978;8.298;2022-08-03T14:59:50;37.50;23.50
23713;DHT22;12035;49.978;8.298;2022-08-03T15:04:47;37.50;23.40
23713;DHT22;12035;49.978;8.298;2022-08-03T15:09:44;37.50;23.20
23713;DHT22;12035;49.978;8.298;2022-08-03T15:14:41;37.50;23.30
23713;DHT22;12035;49.978;8.298;2022-08-03T15:19:40;37.50;23.20
23713;DHT22;12035;49.978;8.298;2022-08-03T15:24:37;37.50;23.20
23713;DHT22;12035;49.978;8.298;2022-08-03T15:29:34;37.50;23.20
23713;DHT22;12035;49.978;8.298;2022-08-03T15:34:31;37.50;23.20
23713;DHT22;12035;49.978;8.298;2022-08-03T15:39:29;37.40;23.10
23713;DHT22;12035;49.978;8.298;2022-08-03T15:44:27;37.40;23.10
23713;DHT22;12035;49.978;8.298;2022-08-03T15:49:24;37.50;23.10
23713;DHT22;12035;49.978;8.298;2022-08-03T15:54:21;37.40;23.00
23713;DHT22;12035;49.978;8.298;2022-08-03T15:59:20;37.50;23.10
23713;DHT22;12035;49.978;8.298;2022-08-03T16:04:17;37.50;23.20
23713;DHT22;12035;49.978;8.298;2022-08-03T16:09:14;37.60;23.10
23713;DHT22;12035;49.978;8.298;2022-08-03T16:14:11;37.70;23.00
23713;DHT22;12035;49.978;8.298;2022-08-03T16:19:09;37.80;22.80
23713;DHT22;12035;49.978;8.298;2022-08-03T16:24:06;37.80;22.70
23713;DHT22;12035;49.978;8.298;2022-08-03T16:29:03;37.80;22.70
23713;DHT22;12035;49.978;8.298;2022-08-03T16:34:00;37.70;22.60
23713;DHT22;12035;49.978;8.298;2022-08-03T16:38:59;37.70;22.70
23713;DHT22;12035;49.978;8.298;2022-08-03T16:43:56;37.60;22.70
23713;DHT22;12035;49.978;8.298;2022-08-03T16:48:52;37.60;22.70
23713;DHT22;12035;49.978;8.298;2022-08-03T16:53:49;37.60;22.80
23713;DHT22;12035;49.978;8.298;2022-08-03T16:58:48;37.60;22.70
23713;DHT22;12035;49.978;8.298;2022-08-03T17:03:45;37.60;22.70
23713;DHT22;12035;49.978;8.298;2022-08-03T17:08:42;37.60;22.80
23713;DHT22;12035;49.978;8.298;2022-08-03T17:13:39;37.60;22.80
23713;DHT22;12035;49.978;8.298;2022-08-03T17:18:45;37.60;22.80
23713;DHT22;12035;49.978;8.298;2022-08-03T17:23:51;37.50;22.70
23713;DHT22;12035;49.978;8.298;2022-08-03T17:28:51;37.40;22.80
23713;DHT22;12035;49.978;8.298;2022-08-03T17:33:51;37.40;23.00
23713;DHT22;12035;49.978;8.298;2022-08-03T17:38:50;37.30;22.90
23713;DHT22;12035;49.978;8.298;2022-08-03T17:43:49;37.30;23.00
23713;DHT22;12035;49.978;8.298;2022-08-03T17:48:47;37.30;23.00
23713;DHT22;12035;49.978;8.298;2022-08-03T17:53:50;37.20;22.90
23713;DHT22;12035;49.978;8.298;2022-08-03T17:58:58;37.20;23.00
23713;DHT22;12035;49.978;8.298;2022-08-03T18:04:02;37.20;23.00
23713;DHT22;12035;49.978;8.298;2022-08-03T18:09:02;37.10;23.00
23713;DHT22;12035;49.978;8.298;2022-08-03T18:14:05;37.10;23.10
23713;DHT22;12035;49.978;8.298;2022-08-03T18:19:04;37.10;23.20
23713;DHT22;12035;49.978;8.298;2022-08-03T18:24:05;37.00;23.20
23713;DHT22;12035;49.978;8.298;2022-08-03T18:29:03;37.00;23.20
23713;DHT22;12035;49.978;8.298;2022-08-03T18:34:02;36.90;23.20
23713;DHT22;12035;49.978;8.298;2022-08-03T18:39:00;36.90;23.20
23713;DHT22;12035;49.978;8.298;2022-08-03T18:43:58;36.90;23.30
23713;DHT22;12035;49.978;8.298;2022-08-03T18:49:02;36.80;23.50
23713;DHT22;12035;49.978;8.298;2022-08-03T18:54:19;36.80;23.70
23713;DHT22;12035;49.978;8.298;2022-08-03T18:59:25;36.70;23.80
23713;DHT22;12035;49.978;8.298;2022-08-03T19:04:30;36.60;24.30
23713;DHT22;12035;49.978;8.298;2022-08-03T19:09:36;36.60;24.50
23713;DHT22;12035;49.978;8.298;2022-08-03T19:14:43;36.50;24.50
23713;DHT22;12035;49.978;8.298;2022-08-03T19:19:43;36.50;24.70
23713;DHT22;12035;49.978;8.298;2022-08-03T19:24:41;36.40;24.80
23713;DHT22;12035;49.978;8.298;2022-08-03T19:29:43;36.30;25.00
23713;DHT22;12035;49.978;8.298;2022-08-03T19:34:43;36.20;25.10
23713;DHT22;12035;49.978;8.298;2022-08-03T19:39:41;36.10;25.10
23713;DHT22;12035;49.978;8.298;2022-08-03T19:44:42;36.10;25.10
23713;DHT22;12035;49.978;8.298;2022-08-03T19:49:40;36.00;25.40
23713;DHT22;12035;49.978;8.298;2022-08-03T19:54:43;35.90;25.50
23713;DHT22;12035;49.978;8.298;2022-08-03T19:59:42;35.80;25.80
23713;DHT22;12035;49.978;8.298;2022-08-03T20:04:40;35.70;25.80
23713;DHT22;12035;49.978;8.298;2022-08-03T20:09:37;35.60;25.80
23713;DHT22;12035;49.978;8.298;2022-08-03T20:14:35;35.50;25.90
23713;DHT22;12035;49.978;8.298;2022-08-03T20:19:35;35.50;26.00
23713;DHT22;12035;49.978;8.298;2022-08-03T20:24:33;35.30;26.10
23713;DHT22;12035;49.978;8.298;2022-08-03T20:29:35;35.30;26.10
23713;DHT22;12035;49.978;8.298;2022-08-03T20:34:37;35.20;26.50
23713;DHT22;12035;49.978;8.298;2022-08-03T20:39:34;35.10;26.50
23713;DHT22;12035;49.978;8.298;2022-08-03T20:44:32;35.00;26.50
23713;DHT22;12035;49.978;8.298;2022-08-03T20:49:29;34.90;26.50
23713;DHT22;12035;49.978;8.298;2022-08-03T20:54:27;34.80;26.70
23713;DHT22;12035;49.978;8.298;2022-08-03T20:59:25;34.70;26.90
23713;DHT22;12035;49.978;8.298;2022-08-03T21:04:25;34.60;26.90
23713;DHT22;12035;49.978;8.298;2022-08-03T21:09:24;34.50;27.00
23713;DHT22;12035;49.978;8.298;2022-08-03T21:14:29;34.40;27.30
23713;DHT22;12035;49.978;8.298;2022-08-03T21:19:34;34.30;27.40
23713;DHT22;12035;49.978;8.298;2022-08-03T21:24:34;34.20;27.30
23713;DHT22;12035;49.978;8.298;2022-08-03T21:29:37;34.20;27.60
23713;DHT22;12035;49.978;8.298;2022-08-03T21:34:35;34.20;28.40
23713;DHT22;12035;49.978;8.298;2022-08-03T21:39:32;34.10;27.90
23713;DHT22;12035;49.978;8.298;2022-08-03T21:44:30;34.00;27.90
23713;DHT22;12035;49.978;8.298;2022-08-03T21:49:31;34.00;28.20
23713;DHT22;12035;49.978;8.298;2022-08-03T21:54:33;33.80;28.40
23713;DHT22;12035;49.978;8.298;2022-08-03T21:59:35;33.80;28.50
23713;DHT22;12035;49.978;8.298;2022-08-03T22:04:35;33.70;28.50
23713;DHT22;12035;49.978;8.298;2022-08-03T22:09:34;33.60;28.70
23713;DHT22;12035;49.978;8.298;2022-08-03T22:14:32;33.60;28.60
23713;DHT22;12035;49.978;8.298;2022-08-03T22:19:29;33.50;28.70
23713;DHT22;12035;49.978;8.298;2022-08-03T22:24:28;33.40;28.70
23713;DHT22;12035;49.978;8.298;2022-08-03T22:29:27;33.30;28.80
23713;DHT22;12035;49.978;8.298;2022-08-03T22:34:27;33.30;29.10
23713;DHT22;12035;49.978;8.298;2022-08-03T22:39:27;33.20;29.30
23713;DHT22;12035;49.978;8.298;2022-08-03T22:44:25;33.10;29.40
23713;DHT22;12035;49.978;8.298;2022-08-03T22:49:23;33.00;29.30
23713;DHT22;12035;49.978;8.298;2022-08-03T22:54:22;33.00;29.50
23713;DHT22;12035;49.978;8.298;2022-08-03T22:59:21;32.90;29.50
23713;DHT22;12035;49.978;8.298;2022-08-03T23:04:18;32.80;29.80
23713;DHT22;12035;49.978;8.298;2022-08-03T23:09:18;32.80;29.80
23713;DHT22;12035;49.978;8.298;2022-08-03T23:14:18;32.70;30.00
23713;DHT22;12035;49.978;8.298;2022-08-03T23:19:18;32.60;29.90
23713;DHT22;12035;49.978;8.298;2022-08-03T23:24:16;32.60;29.90
23713;DHT22;12035;49.978;8.298;2022-08-03T23:29:15;32.50;29.80
23713;DHT22;12035;49.978;8.298;2022-08-03T23:34:16;32.50;29.90
23713;DHT22;12035;49.978;8.298;2022-08-03T23:39:32;32.40;29.90
23713;DHT22;12035;49.978;8.298;2022-08-03T23:44:30;32.30;30.00
23713;DHT22;12035;49.978;8.298;2022-08-03T23:49:30;32.20;30.00
23713;DHT22;12035;49.978;8.298;2022-08-03T23:54:38;32.20;30.10
23713;DHT22;12035;49.978;8.298;2022-08-03T23:59:47;32.10;30.40
